Time;durP1;ratioP1;P1;durP2;ratioP2;P2;SDS_P1;SDS_P2;PMS_P1;PMS_P2;Temp;Humidity;BMP_temperature;BMP_pressure;BME280_temperature;BME280_humidity;BME280_pressure;Samples;Min_cycle;Max_cycle;Signal;HPM_P1;HPM_P2
2022/05/30 00:00:40;;;;;;;6.53;2.05;;;;;;;15.28;55.37;98085.88;4488416;31;20140;-77
2022/05/30 00:03:06;;;;;;;6.15;1.80;;;;;;;15.44;55.43;98072.97;4488471;31;20447;-77
2022/05/30 00:05:32;;;;;;;5.00;2.00;;;;;;;15.46;54.62;98075.50;4502620;31;20102;-79
2022/05/30 00:07:58;;;;;;;5.80;1.92;;;;;;;15.30;54.38;98074.16;4488522;31;20120;-76
2022/05/30 00:10:24;;;;;;;7.28;2.33;;;;;;;15.49;54.14;98070.75;4502874;31;20130;-79
2022/05/30 00:12:49;;;;;;;5.80;1.80;;;;;;;15.51;54.14;98065.28;4488207;31;20111;-79
2022/05/30 00:15:17;;;;;;;7.78;1.92;;;;;;;15.42;54.25;98063.47;4502719;31;20084;-78
2022/05/30 00:17:42;;;;;;;5.87;1.87;;;;;;;15.40;54.54;98058.28;4502419;31;20072;-79
2022/05/30 00:20:09;;;;;;;6.50;1.90;;;;;;;15.57;54.43;98061.28;4502691;31;20085;-78
2022/05/30 00:22:35;;;;;;;6.40;2.03;;;;;;;15.53;54.58;98056.25;4474903;31;20121;-78
2022/05/30 00:25:00;;;;;;;5.90;1.95;;;;;;;15.63;54.08;98044.84;4502637;31;20083;-77
2022/05/30 00:27:25;;;;;;;6.50;2.12;;;;;;;15.68;53.77;98043.47;4502614;31;20087;-79
2022/05/30 00:29:51;;;;;;;6.70;1.80;;;;;;;15.76;53.80;98053.44;4502640;31;20154;-79
2022/05/30 00:32:16;;;;;;;6.50;1.73;;;;;;;15.76;53.00;98045.47;4502548;31;20118;-78
2022/05/30 00:34:42;;;;;;;5.32;1.75;;;;;;;15.84;53.02;98042.13;4501884;31;20152;-78
2022/05/30 00:37:07;;;;;;;5.05;1.62;;;;;;;15.83;52.98;98038.62;4502381;31;20080;-78
2022/05/30 00:39:33;;;;;;;5.32;1.80;;;;;;;15.85;52.51;98028.69;4502572;31;20104;-78
2022/05/30 00:42:13;;;;;;;6.35;1.90;;;;;;;15.81;52.56;98029.94;4502384;31;20072;-78
2022/05/30 00:44:42;;;;;;;6.47;1.75;;;;;;;15.52;52.50;98022.69;4488173;31;20084;-77
2022/05/30 00:47:08;;;;;;;6.03;2.08;;;;;;;15.47;52.53;98018.75;4487993;31;20158;-78
2022/05/30 00:49:35;;;;;;;5.43;1.90;;;;;;;15.25;53.16;98019.78;4502385;31;20084;-78
2022/05/30 00:52:05;;;;;;;5.23;1.80;;;;;;;15.53;52.67;98015.59;4488425;31;20438;-78
2022/05/30 00:54:35;;;;;;;5.53;2.10;;;;;;;15.54;52.54;98011.94;4488853;31;20655;-78
2022/05/30 00:57:20;;;;;;;6.10;1.98;;;;;;;15.30;53.21;98015.75;4502662;31;20064;-78
2022/05/30 00:59:59;;;;;;;6.70;1.80;;;;;;;15.33;52.89;98006.69;4502605;31;20205;-77
2022/05/30 01:02:32;;;;;;;7.93;1.90;;;;;;;15.46;52.73;97999.34;4488137;31;20096;-78
2022/05/30 01:07:43;;;;;;;5.72;1.92;;;;;;;15.45;52.13;98008.31;4490062;31;20457;-78
2022/05/30 01:10:11;;;;;;;7.05;2.05;;;;;;;15.22;52.83;98006.78;4488027;31;20165;-79
2022/05/30 01:12:38;;;;;;;6.43;2.00;;;;;;;15.24;52.80;98007.47;4487634;31;20474;-77
2022/05/30 01:15:13;;;;;;;6.25;2.35;;;;;;;15.04;53.40;98007.38;4502060;31;20091;-77
2022/05/30 01:17:55;;;;;;;7.05;1.80;;;;;;;15.22;52.69;98007.62;4502364;31;20084;-78
2022/05/30 01:20:28;;;;;;;6.37;1.70;;;;;;;15.20;52.34;98000.75;4501801;31;20111;-78
2022/05/30 01:23:12;;;;;;;5.80;1.60;;;;;;;15.22;52.38;98001.47;4487369;31;20825;-79
2022/05/30 01:26:05;;;;;;;5.68;1.80;;;;;;;15.36;52.07;97997.66;4502008;31;20094;-78
2022/05/30 01:28:37;;;;;;;6.32;2.00;;;;;;;15.29;52.13;97994.66;4487568;31;20488;-78
2022/05/30 01:31:03;;;;;;;5.93;2.00;;;;;;;15.25;52.01;97987.94;4501858;31;20155;-77
2022/05/30 01:33:28;;;;;;;5.28;1.50;;;;;;;15.18;52.20;97989.44;4501791;31;20084;-79
2022/05/30 01:35:54;;;;;;;6.90;2.00;;;;;;;15.34;51.55;97980.03;4487482;31;20100;-78
2022/05/30 01:38:21;;;;;;;6.35;1.87;;;;;;;15.31;51.35;97984.75;4501653;31;20100;-79
2022/05/30 01:40:46;;;;;;;6.28;1.90;;;;;;;15.37;51.21;97984.22;4501796;31;20127;-80
2022/05/30 01:43:11;;;;;;;5.47;2.47;;;;;;;15.47;51.56;97979.81;4501590;31;20102;-79
2022/05/30 01:45:37;;;;;;;6.55;1.92;;;;;;;15.60;51.68;97978.72;4501678;31;20321;-79
2022/05/30 01:48:03;;;;;;;4.55;1.65;;;;;;;15.64;51.31;97980.13;4489385;31;20080;-79
2022/05/30 01:50:29;;;;;;;5.78;1.73;;;;;;;15.64;51.14;97977.47;4503746;31;20114;-79
2022/05/30 01:52:54;;;;;;;5.18;1.60;;;;;;;15.44;50.43;97982.72;4503393;31;20092;-79
2022/05/30 01:55:19;;;;;;;4.65;1.73;;;;;;;15.41;50.41;97979.47;4503884;31;20419;-78
2022/05/30 01:57:45;;;;;;;4.93;1.70;;;;;;;15.46;49.53;97980.75;4503640;31;20072;-80
2022/05/30 02:00:11;;;;;;;5.12;1.90;;;;;;;15.52;49.08;97974.06;4489345;31;20364;-79
2022/05/30 02:02:37;;;;;;;7.22;1.73;;;;;;;15.43;48.35;97975.75;4489159;31;20178;-79
2022/05/30 02:05:04;;;;;;;4.70;1.50;;;;;;;15.22;48.16;97983.75;4503401;31;20120;-80
2022/05/30 02:07:30;;;;;;;6.47;1.77;;;;;;;15.09;48.77;97975.16;4489484;31;20076;-80
2022/05/30 02:09:55;;;;;;;5.85;1.70;;;;;;;15.32;48.36;97979.31;4476059;31;20123;-79
2022/05/30 02:12:21;;;;;;;6.12;1.65;;;;;;;15.26;47.88;97986.97;4489389;31;20111;-78
2022/05/30 02:14:46;;;;;;;8.68;1.70;;;;;;;15.19;47.73;97981.34;4503366;31;20123;-78
2022/05/30 02:17:12;;;;;;;5.55;1.70;;;;;;;15.40;47.40;97986.63;4503644;31;20080;-79
2022/05/30 02:19:39;;;;;;;6.45;1.48;;;;;;;15.54;47.63;97978.28;4503667;31;20461;-77
2022/05/30 02:22:05;;;;;;;;;;;;;;;15.28;47.15;97977.91;4489579;31;20084;-77
2022/05/30 02:24:31;;;;;;;6.72;2.60;;;;;;;15.37;46.82;97980.72;4488773;31;20039;-77
2022/05/30 02:26:57;;;;;;;6.12;1.48;;;;;;;15.27;46.62;97986.84;4503276;31;20092;-78
2022/05/30 02:29:22;;;;;;;5.18;1.50;;;;;;;15.47;46.14;97987.78;4503280;31;20087;-78
2022/05/30 02:31:48;;;;;;;3.90;1.50;;;;;;;15.20;46.83;97990.16;4489236;31;20092;-78
2022/05/30 02:36:57;;;;;;;4.40;1.37;;;;;;;15.16;47.00;97986.09;4503451;31;20103;-79
2022/05/30 02:39:24;;;;;;;3.72;1.35;;;;;;;15.19;47.04;97999.94;4503331;31;20084;-78
2022/05/30 02:41:51;;;;;;;4.10;1.40;;;;;;;15.03;47.64;97999.56;4475971;31;20104;-79
2022/05/30 02:44:19;;;;;;;6.93;1.60;;;;;;;15.32;47.15;97997.91;4503327;31;20076;-79
2022/05/30 02:46:52;;;;;;;5.55;1.48;;;;;;;15.30;47.49;97993.72;4503415;31;20072;-78
2022/05/30 02:49:18;;;;;;;5.55;1.60;;;;;;;14.93;47.99;97992.41;4503244;31;20091;-79
2022/05/30 02:51:45;;;;;;;4.37;1.52;;;;;;;15.24;47.60;97999.53;4503471;31;20093;-78
2022/05/30 02:54:11;;;;;;;5.40;1.50;;;;;;;15.00;47.83;98003.31;4503415;31;20107;-77
2022/05/30 02:56:37;;;;;;;4.40;1.40;;;;;;;15.28;47.36;98006.28;4502851;31;20146;-79
2022/05/30 02:59:03;;;;;;;4.62;1.40;;;;;;;15.17;47.61;98017.78;4488597;31;20097;-77
2022/05/30 03:01:31;;;;;;;4.12;1.42;;;;;;;15.34;47.68;98014.53;4489001;31;20104;-79
2022/05/30 03:03:57;;;;;;;4.47;1.20;;;;;;;15.20;47.37;98022.84;4503122;31;20522;-79
2022/05/30 03:06:23;;;;;;;3.78;1.40;;;;;;;15.44;46.87;98019.87;4488805;31;20431;-77
2022/05/30 03:08:48;;;;;;;4.30;1.30;;;;;;;15.40;46.55;98026.44;4488610;31;20108;-78
2022/05/30 03:11:14;;;;;;;4.95;1.30;;;;;;;15.39;47.15;98027.37;4503123;31;20095;-78
2022/05/30 03:13:39;;;;;;;5.87;1.50;;;;;;;15.31;47.05;98030.69;4503268;31;20445;-78
2022/05/30 03:16:05;;;;;;;4.55;1.20;;;;;;;15.30;46.85;98029.03;4503150;31;20076;-78
2022/05/30 03:18:30;;;;;;;3.60;1.30;;;;;;;15.34;46.96;98029.63;4488801;31;20097;-78
2022/05/30 03:20:56;;;;;;;4.72;1.37;;;;;;;15.52;46.58;98029.81;4488786;31;20443;-79
2022/05/30 03:23:22;;;;;;;4.00;1.45;;;;;;;15.40;47.10;98025.59;4503058;31;20121;-79
2022/05/30 03:25:47;;;;;;;6.20;1.48;;;;;;;15.66;47.26;98024.12;4503107;31;20423;-78
2022/05/30 03:28:13;;;;;;;3.60;1.40;;;;;;;15.76;47.33;98031.34;4503065;31;20092;-79
2022/05/30 03:30:38;;;;;;;4.43;1.35;;;;;;;15.63;47.17;98036.88;4488256;31;20157;-79
2022/05/30 03:33:05;;;;;;;6.78;1.58;;;;;;;15.74;47.30;98039.44;4503113;31;20143;-79
2022/05/30 03:35:30;;;;;;;5.10;1.60;;;;;;;15.66;47.20;98045.38;4488658;31;20087;-79
2022/05/30 03:37:56;;;;;;;4.18;1.42;;;;;;;15.76;46.68;98036.66;4503055;31;20521;-79
2022/05/30 03:40:22;;;;;;;3.60;1.40;;;;;;;15.58;46.93;98047.03;4488712;31;20152;-79
2022/05/30 03:42:47;;;;;;;4.20;1.50;;;;;;;15.52;46.87;98043.09;4502909;31;20132;-79
2022/05/30 03:45:13;;;;;;;3.00;1.35;;;;;;;15.61;47.03;98041.47;4502956;31;20144;-79
2022/05/30 03:47:44;;;;;;;4.97;1.40;;;;;;;15.71;46.77;98037.84;4502818;31;20473;-79
2022/05/30 03:50:13;;;;;;;4.53;1.33;;;;;;;15.80;46.53;98041.56;4503083;31;20439;-79
2022/05/30 03:52:39;;;;;;;3.70;1.30;;;;;;;15.81;46.70;98042.41;4488529;31;20083;-80
2022/05/30 03:55:14;;;;;;;4.78;1.35;;;;;;;15.78;46.77;98037.34;4502999;31;20120;-79
2022/05/30 03:57:40;;;;;;;4.95;1.40;;;;;;;15.97;46.87;98036.56;4489098;31;20169;-80
2022/05/30 04:00:18;;;;;;;4.03;1.30;;;;;;;15.94;46.72;98050.97;4488968;31;20118;-78
2022/05/30 04:02:47;;;;;;;7.28;1.50;;;;;;;16.11;46.48;98038.84;4502657;31;20834;-79
2022/05/30 04:05:13;;;;;;;6.93;1.40;;;;;;;16.20;46.21;98043.31;4502623;31;20127;-79
2022/05/30 04:07:39;;;;;;;6.50;1.60;;;;;;;16.31;46.32;98029.91;4488553;31;20107;-79
2022/05/30 04:10:05;;;;;;;4.90;1.50;;;;;;;16.40;47.25;98030.91;4501855;31;20135;-80
2022/05/30 04:12:30;;;;;;;3.85;1.27;;;;;;;16.25;47.94;98038.44;4488432;31;20092;-79
2022/05/30 04:14:57;;;;;;;5.32;1.55;;;;;;;16.08;48.13;98041.78;4502786;31;20075;-79
2022/05/30 04:17:24;;;;;;;3.75;1.42;;;;;;;16.36;47.91;98041.94;4488263;31;20100;-79
2022/05/30 04:19:49;;;;;;;4.40;1.58;;;;;;;16.52;47.63;98039.59;4475310;31;20148;-79
2022/05/30 04:22:15;;;;;;;5.85;1.75;;;;;;;16.49;47.72;98039.84;4502623;31;20097;-78
2022/05/30 04:24:41;;;;;;;5.20;1.55;;;;;;;16.52;47.64;98044.91;4488205;31;20079;-79
2022/05/30 04:27:06;;;;;;;7.32;1.52;;;;;;;16.57;47.54;98058.59;4502646;31;20517;-78
2022/05/30 04:29:32;;;;;;;5.95;1.55;;;;;;;16.41;47.38;98056.50;4475023;31;20104;-79
2022/05/30 04:32:02;;;;;;;8.07;1.98;;;;;;;16.54;46.81;98061.56;4502816;31;20048;-79
2022/05/30 04:34:28;;;;;;;5.57;1.42;;;;;;;16.63;46.14;98050.09;4487960;31;20084;-79
2022/05/30 04:36:53;;;;;;;6.18;1.62;;;;;;;16.75;45.92;98052.59;4502559;31;20079;-78
2022/05/30 04:39:19;;;;;;;6.22;1.70;;;;;;;16.99;45.29;98047.69;4487985;31;20092;-78
2022/05/30 04:41:44;;;;;;;5.55;1.50;;;;;;;17.13;44.93;98058.88;4502487;31;20112;-79
2022/05/30 04:44:10;;;;;;;4.75;1.50;;;;;;;17.28;45.12;98054.78;4488040;31;20120;-80
2022/05/30 04:46:35;;;;;;;3.62;1.30;;;;;;;17.32;44.70;98061.50;4502459;31;20088;-79
2022/05/30 04:49:01;;;;;;;9.68;2.08;;;;;;;17.55;44.14;98061.16;4502592;31;20140;-78
2022/05/30 04:51:27;;;;;;;5.55;1.50;;;;;;;17.68;44.13;98069.66;4502445;31;20115;-78
2022/05/30 04:53:52;;;;;;;5.07;1.50;;;;;;;17.92;43.44;98065.66;4488155;31;20148;-80
2022/05/30 04:56:19;;;;;;;3.87;1.30;;;;;;;18.01;43.35;98078.09;4502367;31;20104;-78
2022/05/30 04:58:49;;;;;;;6.07;1.50;;;;;;;18.23;43.06;98077.69;4487987;31;20471;-79
2022/05/30 05:01:15;;;;;;;6.82;1.50;;;;;;;18.46;42.91;98075.41;4502310;31;20083;-79
2022/05/30 05:03:42;;;;;;;6.62;1.50;;;;;;;18.59;41.73;98077.72;4487987;31;20151;-77
2022/05/30 05:06:19;;;;;;;4.80;1.58;;;;;;;18.59;41.33;98076.88;4501999;31;20096;-78
2022/05/30 05:08:47;;;;;;;6.35;1.80;;;;;;;18.70;41.21;98071.31;4487956;31;20092;-77
2022/05/30 05:11:12;;;;;;;6.22;1.70;;;;;;;18.63;40.82;98072.91;4502190;31;20079;-77
2022/05/30 05:13:39;;;;;;;6.28;1.50;;;;;;;18.95;40.46;98090.22;4502206;31;20110;-78
2022/05/30 05:16:04;;;;;;;4.85;1.35;;;;;;;18.96;41.06;98091.91;4487694;31;20104;-78
2022/05/30 05:18:30;;;;;;;5.80;1.83;;;;;;;19.17;40.84;98086.25;4501918;31;20415;-78
2022/05/30 05:20:55;;;;;;;4.62;1.48;;;;;;;19.43;40.25;98088.91;4502689;31;20143;-78
2022/05/30 05:23:21;;;;;;;5.12;1.60;;;;;;;19.42;39.65;98087.25;4489688;31;20099;-77
2022/05/30 05:25:46;;;;;;;5.68;1.75;;;;;;;19.52;39.30;98092.50;4503739;31;20124;-76
2022/05/30 05:28:12;;;;;;;3.90;1.52;;;;;;;19.75;39.49;98096.34;4504043;31;20377;-78
2022/05/30 05:30:39;;;;;;;4.78;1.52;;;;;;;19.97;39.88;98102.13;4503804;31;20478;-77
2022/05/30 05:33:05;;;;;;;6.87;1.73;;;;;;;20.10;39.49;98105.19;4489714;31;20530;-76
2022/05/30 05:35:30;;;;;;;5.30;1.50;;;;;;;20.33;38.79;98093.91;4503934;31;20114;-77
2022/05/30 05:37:56;;;;;;;5.40;1.40;;;;;;;20.29;38.66;98104.09;4503516;31;20088;-77
2022/05/30 05:40:22;;;;;;;5.65;1.62;;;;;;;20.42;38.24;98112.47;4489644;31;20095;-77
2022/05/30 05:42:47;;;;;;;3.42;1.20;;;;;;;20.26;38.25;98107.06;4503677;31;20463;-77
2022/05/30 05:45:12;;;;;;;4.10;1.42;;;;;;;20.35;38.00;98113.31;4503717;31;20112;-77
2022/05/30 05:47:38;;;;;;;4.78;1.48;;;;;;;20.29;38.64;98130.84;4503866;31;20088;-78
2022/05/30 05:50:04;;;;;;;6.80;1.50;;;;;;;20.04;38.74;98117.34;4504072;31;20076;-77
2022/05/30 05:52:30;;;;;;;6.50;1.60;;;;;;;20.10;39.15;98121.22;4504213;31;20071;-77
2022/05/30 05:54:55;;;;;;;6.60;1.55;;;;;;;20.06;39.59;98127.91;4504032;31;20129;-79
2022/05/30 05:57:22;;;;;;;4.70;1.40;;;;;;;20.16;39.54;98117.91;4489680;31;20100;-77
2022/05/30 05:59:47;;;;;;;4.23;1.30;;;;;;;20.43;38.80;98124.00;4504057;31;20087;-77
2022/05/30 06:02:13;;;;;;;6.05;1.62;;;;;;;20.48;38.29;98121.69;4489585;31;20114;-78
2022/05/30 06:04:39;;;;;;;5.35;1.62;;;;;;;20.74;37.86;98131.47;4503509;31;20088;-78
2022/05/30 06:07:04;;;;;;;5.28;1.55;;;;;;;20.55;37.77;98122.72;4504035;31;20114;-78
2022/05/30 06:09:30;;;;;;;5.55;1.50;;;;;;;20.76;36.85;98124.94;4503981;31;20110;-77
2022/05/30 06:11:59;;;;;;;5.82;1.40;;;;;;;20.68;38.04;98132.97;4489294;31;20083;-78
2022/05/30 06:14:25;;;;;;;5.15;1.50;;;;;;;21.03;36.61;98133.69;4489273;31;20193;-76
2022/05/30 06:16:51;;;;;;;6.93;1.30;;;;;;;20.98;36.68;98126.16;4489263;31;20141;-77
2022/05/30 06:19:16;;;;;;;5.45;1.48;;;;;;;21.09;37.28;98132.19;4489240;31;20159;-77
2022/05/30 06:21:41;;;;;;;6.60;1.20;;;;;;;21.26;35.49;98136.53;4503815;31;20072;-78
2022/05/30 06:24:08;;;;;;;5.25;1.40;;;;;;;20.83;36.88;98133.19;4489409;31;20133;-77
2022/05/30 06:26:34;;;;;;;3.85;1.42;;;;;;;20.89;37.26;98134.34;4503573;31;20118;-77
2022/05/30 06:29:00;;;;;;;4.30;1.25;;;;;;;20.56;36.50;98131.59;4489600;31;20091;-78
2022/05/30 06:31:28;;;;;;;8.38;1.60;;;;;;;20.66;35.70;98131.47;4503706;31;20351;-78
2022/05/30 06:33:54;;;;;;;6.72;1.58;;;;;;;20.79;35.92;98129.16;4489032;31;20119;-76
2022/05/30 06:36:22;;;;;;;3.53;1.30;;;;;;;20.75;36.56;98139.34;4489404;31;20108;-77
2022/05/30 06:38:48;;;;;;;5.50;1.48;;;;;;;20.85;36.22;98136.53;4489073;31;20779;-77
2022/05/30 06:41:16;;;;;;;5.35;1.42;;;;;;;20.85;36.45;98143.72;4503484;31;20118;-77
2022/05/30 06:43:43;;;;;;;6.00;1.45;;;;;;;21.04;35.61;98146.09;4488716;31;20172;-77
2022/05/30 06:46:10;;;;;;;5.75;1.45;;;;;;;21.24;34.78;98148.44;4488927;31;20099;-78
2022/05/30 06:48:35;;;;;;;5.95;1.30;;;;;;;21.21;35.17;98152.31;4489080;31;20080;-77
2022/05/30 06:51:10;;;;;;;5.10;1.30;;;;;;;21.35;36.07;98151.63;4503277;31;20106;-77
2022/05/30 06:53:36;;;;;;;4.70;1.50;;;;;;;21.56;36.76;98147.63;4489041;31;20352;-77
2022/05/30 06:56:01;;;;;;;6.10;1.45;;;;;;;21.68;34.54;98148.13;4503360;31;20135;-77
2022/05/30 06:58:28;;;;;;;3.95;1.30;;;;;;;21.65;35.42;98154.63;4503256;31;20100;-77
2022/05/30 07:00:59;;;;;;;6.55;1.48;;;;;;;21.67;36.16;98154.47;4488906;31;20489;-75
2022/05/30 07:03:25;;;;;;;5.72;1.45;;;;;;;21.64;36.02;98155.66;4488919;31;20088;-77
2022/05/30 07:05:50;;;;;;;9.30;1.48;;;;;;;21.86;35.83;98162.13;4488711;31;20118;-77
2022/05/30 07:08:16;;;;;;;5.10;1.30;;;;;;;21.86;34.51;98151.41;4503214;31;20083;-77
2022/05/30 07:10:42;;;;;;;4.70;1.40;;;;;;;21.90;34.10;98162.63;4503030;31;20075;-79
2022/05/30 07:13:08;;;;;;;4.12;1.23;;;;;;;21.95;33.98;98162.97;4488979;31;20153;-78
2022/05/30 07:15:35;;;;;;;5.68;1.23;;;;;;;22.18;33.70;98150.47;4488541;31;20096;-79
2022/05/30 07:18:07;;;;;;;4.93;1.30;;;;;;;22.50;32.83;98158.59;4503307;31;20155;-79
2022/05/30 07:20:32;;;;;;;4.35;1.27;;;;;;;22.56;31.81;98158.75;4503232;31;20119;-80
2022/05/30 07:22:58;;;;;;;4.43;1.17;;;;;;;22.85;32.12;98156.37;4503079;31;20092;-79
2022/05/30 07:25:23;;;;;;;6.72;1.50;;;;;;;23.00;30.39;98156.47;4502970;31;20083;-79
2022/05/30 07:27:48;;;;;;;5.05;1.33;;;;;;;22.91;30.59;98153.84;4503068;31;20080;-80
2022/05/30 07:30:14;;;;;;;3.95;1.40;;;;;;;23.02;30.96;98147.19;4503086;31;20094;-79
2022/05/30 07:32:39;;;;;;;5.05;1.55;;;;;;;22.84;31.89;98152.03;4488699;31;20125;-80
2022/05/30 07:35:05;;;;;;;3.90;1.25;;;;;;;22.96;31.89;98151.44;4502815;31;20114;-79
2022/05/30 07:37:30;;;;;;;4.37;1.20;;;;;;;23.19;31.41;98150.63;4503079;31;20060;-79
2022/05/30 07:39:56;;;;;;;4.62;1.40;;;;;;;23.37;30.67;98161.06;4502862;31;20085;-80
2022/05/30 07:42:21;;;;;;;2.90;1.27;;;;;;;23.44;30.04;98153.97;4503097;31;20435;-80
2022/05/30 07:44:46;;;;;;;3.42;1.25;;;;;;;23.44;28.26;98151.28;4501707;31;20164;-79
2022/05/30 07:47:14;;;;;;;4.53;1.45;;;;;;;23.51;29.00;98160.28;4488184;31;20080;-80
2022/05/30 07:49:39;;;;;;;;;;;;;;;23.70;29.37;98160.78;4503371;31;20071;-80
2022/05/30 07:52:06;;;;;;;5.15;1.40;;;;;;;24.06;28.57;98165.50;4502311;31;20349;-79
2022/05/30 07:54:33;;;;;;;7.12;1.65;;;;;;;23.96;29.97;98163.06;4502443;31;20447;-80
2022/05/30 07:56:59;;;;;;;4.62;1.40;;;;;;;24.06;30.28;98160.94;4488655;31;20136;-80
2022/05/30 07:59:24;;;;;;;5.47;1.30;;;;;;;24.23;29.94;98156.22;4502208;31;20092;-80
2022/05/30 08:01:50;;;;;;;3.70;1.23;;;;;;;23.70;31.49;98163.47;4502142;31;20426;-78
2022/05/30 08:04:16;;;;;;;6.37;1.50;;;;;;;24.00;31.50;98163.53;4502763;31;20128;-80
2022/05/30 08:06:42;;;;;;;5.95;1.65;;;;;;;24.15;31.18;98164.37;4488286;31;20420;-79
2022/05/30 08:09:07;;;;;;;3.37;1.50;;;;;;;23.99;31.22;98156.47;4488233;31;20110;-80
2022/05/30 08:11:33;;;;;;;7.18;1.60;;;;;;;23.86;31.63;98162.53;4502961;31;20140;-80
2022/05/30 08:13:58;;;;;;;4.62;1.50;;;;;;;23.59;31.39;98172.00;4488551;31;20122;-79
2022/05/30 08:16:25;;;;;;;7.78;1.55;;;;;;;23.52;31.82;98166.50;4488577;31;20088;-80
2022/05/30 08:18:51;;;;;;;5.25;1.77;;;;;;;23.81;30.93;98173.81;4502454;31;20128;-78
2022/05/30 08:21:17;;;;;;;5.20;1.45;;;;;;;24.00;30.70;98177.00;4488070;31;20132;-79
2022/05/30 08:23:42;;;;;;;5.15;1.67;;;;;;;24.16;30.19;98173.28;4488611;31;20110;-80
2022/05/30 08:26:08;;;;;;;4.75;1.30;;;;;;;24.34;29.96;98171.06;4502657;31;20374;-78
2022/05/30 08:28:34;;;;;;;4.45;1.65;;;;;;;24.14;28.58;98185.09;4488584;31;20076;-79
2022/05/30 08:31:00;;;;;;;5.43;1.70;;;;;;;24.09;28.84;98179.41;4502994;31;20102;-79
2022/05/30 08:33:27;;;;;;;5.53;1.60;;;;;;;23.96;29.61;98187.28;4488358;31;20111;-80
2022/05/30 08:36:04;;;;;;;5.70;1.53;;;;;;;24.06;29.17;98197.78;4502643;31;20048;-79
2022/05/30 08:38:37;;;;;;;8.00;1.60;;;;;;;24.16;29.76;98194.81;4502650;31;20359;-80
2022/05/30 08:43:56;;;;;;;5.78;1.60;;;;;;;24.53;29.25;98183.97;4490461;31;20229;-78
2022/05/30 08:46:24;;;;;;;5.05;1.40;;;;;;;24.14;29.17;98182.41;4488249;31;20088;-79
2022/05/30 08:49:05;;;;;;;5.43;1.42;;;;;;;24.62;28.92;98162.31;4502446;31;20111;-80
2022/05/30 08:51:40;;;;;;;4.30;1.37;;;;;;;24.90;28.33;98165.13;4502247;31;20104;-80
2022/05/30 08:54:08;;;;;;;4.43;1.33;;;;;;;24.87;27.90;98173.59;4502537;31;20151;-80
2022/05/30 08:56:36;;;;;;;5.93;1.48;;;;;;;25.12;27.68;98176.75;4501850;31;20091;-80
2022/05/30 08:59:05;;;;;;;4.53;1.50;;;;;;;25.12;27.28;98180.28;4502555;31;20106;-79
2022/05/30 09:01:39;;;;;;;5.05;1.62;;;;;;;25.04;27.96;98179.59;4502172;31;20103;-79
2022/05/30 09:04:30;;;;;;;5.82;1.62;;;;;;;25.03;28.05;98188.69;4485705;31;77034;-79
2022/05/30 09:06:59;;;;;;;8.35;1.52;;;;;;;25.11;29.24;98204.72;4477800;31;20092;-80
2022/05/30 09:09:29;;;;;;;6.40;1.42;;;;;;;25.57;29.16;98206.25;4502178;31;20115;-79
2022/05/30 09:12:00;;;;;;;4.37;1.48;;;;;;;25.93;27.14;98194.53;4487814;31;20119;-79
2022/05/30 09:14:40;;;;;;;4.60;1.48;;;;;;;26.09;26.33;98205.84;4488016;31;20745;-78
2022/05/30 09:17:10;;;;;;;4.45;1.60;;;;;;;25.63;26.45;98200.06;4487813;31;20610;-80
2022/05/30 09:19:36;;;;;;;4.43;1.25;;;;;;;25.42;27.04;98199.06;4487876;31;20432;-79
2022/05/30 09:22:04;;;;;;;4.35;1.48;;;;;;;25.55;27.14;98202.91;4487614;31;20116;-80
2022/05/30 09:24:32;;;;;;;6.90;1.48;;;;;;;25.45;27.67;98201.38;4501670;31;20143;-80
2022/05/30 09:27:00;;;;;;;5.93;1.60;;;;;;;25.24;28.27;98204.88;4487404;31;20091;-79
2022/05/30 09:29:35;;;;;;;5.57;1.60;;;;;;;25.10;28.56;98194.97;4487821;31;20093;-79
2022/05/30 09:32:41;;;;;;;5.00;1.45;;;;;;;24.68;29.26;98208.16;4501859;31;20122;-78
2022/05/30 09:35:24;;;;;;;6.35;1.60;;;;;;;25.12;29.57;98204.53;4487633;31;20104;-79
2022/05/30 09:38:11;;;;;;;5.65;1.65;;;;;;;24.78;28.64;98201.66;4487487;31;20100;-79
2022/05/30 09:41:06;;;;;;;6.65;2.58;;;;;;;24.92;28.64;98200.81;4487333;31;20084;-79
2022/05/30 09:44:03;;;;;;;7.18;1.73;;;;;;;24.45;29.75;98200.19;4486395;31;20156;-78
2022/05/30 09:46:38;;;;;;;7.85;1.65;;;;;;;24.73;28.14;98204.94;4493667;31;20756;-79
2022/05/30 09:49:17;;;;;;;6.53;1.70;;;;;;;24.77;28.40;98208.91;4474186;31;20100;-80
2022/05/30 09:51:54;;;;;;;4.50;1.67;;;;;;;24.68;28.58;98221.62;4487430;31;20450;-79
2022/05/30 09:54:22;;;;;;;3.65;1.30;;;;;;;24.62;28.61;98221.56;4501660;31;20209;-79
2022/05/30 09:56:48;;;;;;;5.65;1.42;;;;;;;24.86;29.02;98221.25;4501171;31;20139;-79
2022/05/30 09:59:13;;;;;;;5.72;1.62;;;;;;;25.12;28.00;98230.66;4501494;31;20080;-80
2022/05/30 10:01:39;;;;;;;6.78;1.62;;;;;;;24.87;28.07;98235.56;4501274;31;20124;-80
2022/05/30 10:04:36;;;;;;;5.55;1.60;;;;;;;24.55;28.36;98231.41;4487039;31;20099;-79
2022/05/30 10:07:18;;;;;;;5.20;1.48;;;;;;;24.67;28.91;98227.25;4486471;31;20122;-79
2022/05/30 10:09:56;;;;;;;6.03;1.50;;;;;;;24.56;28.36;98227.72;4489263;31;20079;-82
2022/05/30 10:12:40;;;;;;;5.20;1.27;;;;;;;24.58;28.71;98241.81;4489187;31;20430;-80
2022/05/30 10:15:32;;;;;;;4.32;1.48;;;;;;;24.72;28.17;98239.13;4503651;31;20443;-78
2022/05/30 10:18:22;;;;;;;4.30;1.50;;;;;;;24.92;27.38;98233.13;4489348;31;20107;-79
2022/05/30 10:21:22;;;;;;;3.55;1.55;;;;;;;24.76;27.26;98226.09;4489339;31;20406;-79
2022/05/30 10:30:09;;;;;;;;;;;;;;;24.59;28.24;98227.31;4503984;31;20513;-78
2022/05/30 10:32:37;;;;;;;4.30;1.30;;;;;;;24.60;28.14;98232.53;4488955;31;19990;-79
2022/05/30 10:35:09;;;;;;;4.12;1.30;;;;;;;24.68;27.57;98221.62;4503548;31;20403;-78
2022/05/30 10:38:12;;;;;;;4.97;2.05;;;;;;;24.66;27.61;98233.63;4503581;31;20100;-79
2022/05/30 10:40:59;;;;;;;5.03;1.30;;;;;;;24.54;27.62;98246.75;4488883;31;20159;-78
2022/05/30 10:43:34;;;;;;;3.75;1.10;;;;;;;24.38;28.06;98241.50;4503741;31;20102;-80
2022/05/30 10:46:03;;;;;;;4.53;1.20;;;;;;;24.47;28.30;98248.47;4503504;31;20072;-79
2022/05/30 10:48:31;;;;;;;3.50;1.40;;;;;;;24.53;27.73;98247.75;4476183;31;20531;-79
2022/05/30 10:51:23;;;;;;;5.53;1.30;;;;;;;24.23;28.43;98261.19;4489251;31;20099;-79
2022/05/30 10:53:53;;;;;;;6.60;1.42;;;;;;;23.94;28.90;98257.41;4480336;31;20096;-79
2022/05/30 10:56:30;;;;;;;5.53;1.30;;;;;;;23.72;29.57;98256.41;4488846;31;20075;-79
2022/05/30 10:59:35;;;;;;;4.33;1.50;;;;;;;23.78;29.69;98252.19;4489029;31;20100;-79
2022/05/30 11:02:19;;;;;;;4.20;1.33;;;;;;;24.05;28.88;98237.31;4502953;31;20198;-79
2022/05/30 11:04:54;;;;;;;5.47;1.33;;;;;;;24.13;28.60;98242.59;4488747;31;20098;-78
2022/05/30 11:07:38;;;;;;;5.12;1.60;;;;;;;24.38;27.96;98244.19;4488952;31;20128;-78
2022/05/30 11:10:41;;;;;;;5.60;1.30;;;;;;;24.60;27.05;98246.00;4503461;31;20144;-80
2022/05/30 11:13:30;;;;;;;3.80;1.20;;;;;;;24.39;27.50;98260.16;4503338;31;20139;-79
2022/05/30 11:15:57;;;;;;;;;;;;;;;24.58;28.49;98266.88;4503594;31;20102;-80
2022/05/30 11:18:38;;;;;;;6.18;1.40;;;;;;;24.82;27.34;98260.38;4488770;31;19963;-79
2022/05/30 11:21:43;;;;;;;5.97;1.50;;;;;;;24.79;28.17;98276.91;4488552;31;20138;-80
2022/05/30 11:24:09;;;;;;;8.32;1.92;;;;;;;24.80;27.89;98275.03;4438522;32;20160;-79
2022/05/30 11:27:08;;;;;;;3.47;1.40;;;;;;;24.47;28.30;98278.09;4425558;32;20143;-79
2022/05/30 11:29:42;;;;;;;8.50;1.90;;;;;;;24.38;28.92;98276.50;4438503;32;20090;-79
2022/05/30 11:32:23;;;;;;;5.45;1.60;;;;;;;24.25;28.40;98279.84;4437905;32;20543;-79
2022/05/30 11:34:57;;;;;;;11.27;1.50;;;;;;;23.71;29.26;98291.53;4425344;32;20164;-78
2022/05/30 11:37:25;;;;;;;4.70;1.33;;;;;;;23.65;29.78;98281.50;4438455;32;20093;-79
2022/05/30 11:40:34;;;;;;;5.87;1.52;;;;;;;23.78;29.77;98271.03;4438327;32;20090;-79
2022/05/30 11:43:11;;;;;;;5.10;1.40;;;;;;;23.99;29.42;98262.25;4392418;32;20102;-79
2022/05/30 11:45:40;;;;;;;4.60;1.40;;;;;;;24.06;29.65;98268.56;4392557;32;20116;-80
2022/05/30 11:48:08;;;;;;;5.45;1.45;;;;;;;24.05;29.52;98271.44;4392561;32;20124;-80
2022/05/30 11:50:34;;;;;;;;;;;;;;;24.18;29.65;98265.44;4392794;32;20078;-78
2022/05/30 11:53:19;;;;;;;4.12;1.40;;;;;;;23.95;29.79;98269.00;4379772;32;19986;-78
2022/05/30 11:56:22;;;;;;;5.03;1.30;;;;;;;24.00;29.29;98266.62;4380093;32;20830;-79
2022/05/30 11:59:33;;;;;;;5.28;1.40;;;;;;;23.94;29.20;98267.34;4383138;32;20095;-78
2022/05/30 12:02:00;;;;;;;4.40;1.37;;;;;;;24.08;28.81;98266.53;4422634;32;20081;-78